sensor_id;sensor_type;location;lat;lon;timestamp;pressure;altitude;pressure_sealevel;temperature;humidity
20023;BME280;10172;42.054;24.546;2023-02-01T00:01:49;98286.41;;;3.93;81.05
20023;BME280;10172;42.054;24.546;2023-02-01T00:04:14;98298.31;;;4.01;81.58
20023;BME280;10172;42.054;24.546;2023-02-01T00:06:40;98301.53;;;3.88;82.96
20023;BME280;10172;42.054;24.546;2023-02-01T00:09:05;98306.13;;;3.83;83.56
20023;BME280;10172;42.054;24.546;2023-02-01T00:11:31;98306.47;;;3.74;82.76
20023;BME280;10172;42.054;24.546;2023-02-01T00:13:57;98307.09;;;4.22;82.17
20023;BME280;10172;42.054;24.546;2023-02-01T00:16:25;98324.78;;;3.77;83.61
20023;BME280;10172;42.054;24.546;2023-02-01T00:18:55;98308.25;;;3.73;84.41
20023;BME280;10172;42.054;24.546;2023-02-01T00:21:22;98309.63;;;3.61;83.71
20023;BME280;10172;42.054;24.546;2023-02-01T00:23:47;98307.28;;;3.54;85.26
20023;BME280;10172;42.054;24.546;2023-02-01T00:28:55;98296.91;;;3.73;85.25
20023;BME280;10172;42.054;24.546;2023-02-01T00:31:21;98289.34;;;4.47;82.81
20023;BME280;10172;42.054;24.546;2023-02-01T00:33:47;98296.78;;;3.76;83.47
20023;BME280;10172;42.054;24.546;2023-02-01T00:36:14;98297.22;;;4.07;82.97
20023;BME280;10172;42.054;24.546;2023-02-01T00:38:39;98294.81;;;3.81;82.77
20023;BME280;10172;42.054;24.546;2023-02-01T00:43:37;98294.97;;;3.76;82.70
20023;BME280;10172;42.054;24.546;2023-02-01T00:46:02;98305.25;;;3.60;83.20
20023;BME280;10172;42.054;24.546;2023-02-01T00:48:28;98308.44;;;3.69;84.10
20023;BME280;10172;42.054;24.546;2023-02-01T00:50:54;98310.97;;;3.72;83.96
20023;BME280;10172;42.054;24.546;2023-02-01T00:53:19;98300.63;;;3.22;84.40
20023;BME280;10172;42.054;24.546;2023-02-01T00:55:46;98302.69;;;3.37;84.61
20023;BME280;10172;42.054;24.546;2023-02-01T00:58:12;98299.31;;;3.55;84.21
20023;BME280;10172;42.054;24.546;2023-02-01T01:00:37;98301.16;;;3.32;84.90
20023;BME280;10172;42.054;24.546;2023-02-01T01:03:03;98298.09;;;3.42;83.33
20023;BME280;10172;42.054;24.546;2023-02-01T01:05:49;98295.47;;;3.42;84.68
20023;BME280;10172;42.054;24.546;2023-02-01T01:08:15;98291.13;;;3.41;84.17
20023;BME280;10172;42.054;24.546;2023-02-01T01:10:42;98288.31;;;3.24;84.77
20023;BME280;10172;42.054;24.546;2023-02-01T01:13:08;98292.22;;;3.57;84.11
20023;BME280;10172;42.054;24.546;2023-02-01T01:15:38;98290.16;;;3.66;84.76
20023;BME280;10172;42.054;24.546;2023-02-01T01:18:04;98290.38;;;3.81;83.25
20023;BME280;10172;42.054;24.546;2023-02-01T01:20:30;98296.03;;;3.50;84.28
20023;BME280;10172;42.054;24.546;2023-02-01T01:22:56;98301.63;;;3.41;84.23
20023;BME280;10172;42.054;24.546;2023-02-01T01:25:21;98297.38;;;3.60;84.06
20023;BME280;10172;42.054;24.546;2023-02-01T01:27:47;98302.81;;;3.78;84.25
20023;BME280;10172;42.054;24.546;2023-02-01T01:30:13;98294.13;;;3.32;84.57
20023;BME280;10172;42.054;24.546;2023-02-01T01:32:38;98302.25;;;3.26;85.07
20023;BME280;10172;42.054;24.546;2023-02-01T01:35:04;98304.44;;;3.37;84.90
20023;BME280;10172;42.054;24.546;2023-02-01T01:37:31;98297.22;;;3.20;85.32
20023;BME280;10172;42.054;24.546;2023-02-01T01:39:57;98298.13;;;2.96;86.42
20023;BME280;10172;42.054;24.546;2023-02-01T01:42:22;98292.09;;;2.94;86.67
20023;BME280;10172;42.054;24.546;2023-02-01T01:47:24;98293.19;;;3.33;86.69
20023;BME280;10172;42.054;24.546;2023-02-01T01:49:50;98293.53;;;3.03;87.15
20023;BME280;10172;42.054;24.546;2023-02-01T01:52:16;98297.81;;;3.05;87.36
20023;BME280;10172;42.054;24.546;2023-02-01T01:54:44;98300.56;;;3.00;87.70
20023;BME280;10172;42.054;24.546;2023-02-01T01:57:14;98306.44;;;2.84;88.35
20023;BME280;10172;42.054;24.546;2023-02-01T01:59:48;98296.66;;;2.89;88.62
20023;BME280;10172;42.054;24.546;2023-02-01T02:02:15;98284.25;;;2.92;88.44
20023;BME280;10172;42.054;24.546;2023-02-01T02:04:41;98291.03;;;3.21;87.08
20023;BME280;10172;42.054;24.546;2023-02-01T02:07:11;98298.56;;;2.84;88.95
20023;BME280;10172;42.054;24.546;2023-02-01T02:09:39;98290.94;;;3.24;88.19
20023;BME280;10172;42.054;24.546;2023-02-01T02:12:05;98287.38;;;3.25;87.48
20023;BME280;10172;42.054;24.546;2023-02-01T02:14:31;98292.75;;;2.99;87.81
20023;BME280;10172;42.054;24.546;2023-02-01T02:43:02;98304.88;;;3.26;88.91
20023;BME280;10172;42.054;24.546;2023-02-01T02:46:02;98309.09;;;3.07;91.41
20023;BME280;10172;42.054;24.546;2023-02-01T02:48:52;98306.13;;;3.16;90.67
20023;BME280;10172;42.054;24.546;2023-02-01T02:51:32;98309.09;;;3.07;89.87
20023;BME280;10172;42.054;24.546;2023-02-01T02:54:21;98303.72;;;2.87;91.63
20023;BME280;10172;42.054;24.546;2023-02-01T02:57:09;98301.31;;;3.27;91.08
20023;BME280;10172;42.054;24.546;2023-02-01T02:59:55;98300.75;;;3.19;90.16
20023;BME280;10172;42.054;24.546;2023-02-01T03:02:41;98300.66;;;2.99;91.01
20023;BME280;10172;42.054;24.546;2023-02-01T03:05:25;98301.88;;;3.35;90.40
20023;BME280;10172;42.054;24.546;2023-02-01T03:10:58;98304.03;;;3.03;92.53
20023;BME280;10172;42.054;24.546;2023-02-01T03:13:36;98302.53;;;2.95;93.51
20023;BME280;10172;42.054;24.546;2023-02-01T03:18:36;98307.38;;;2.83;92.87
20023;BME280;10172;42.054;24.546;2023-02-01T03:21:10;98307.03;;;2.69;93.38
20023;BME280;10172;42.054;24.546;2023-02-01T03:23:37;98311.50;;;3.13;93.47
20023;BME280;10172;42.054;24.546;2023-02-01T03:26:10;98309.44;;;2.75;93.53
20023;BME280;10172;42.054;24.546;2023-02-01T03:28:39;98313.31;;;3.34;91.41
20023;BME280;10172;42.054;24.546;2023-02-01T03:31:09;98313.66;;;3.25;91.50
20023;BME280;10172;42.054;24.546;2023-02-01T03:33:34;98309.44;;;2.98;91.78
20023;BME280;10172;42.054;24.546;2023-02-01T03:41:28;98303.97;;;2.81;94.36
20023;BME280;10172;42.054;24.546;2023-02-01T03:44:11;98306.13;;;3.16;93.06
20023;BME280;10172;42.054;24.546;2023-02-01T03:46:47;98305.66;;;2.82;93.97
20023;BME280;10172;42.054;24.546;2023-02-01T03:49:29;98304.06;;;2.78;94.01
20023;BME280;10172;42.054;24.546;2023-02-01T03:51:58;98315.59;;;3.20;92.34
20023;BME280;10172;42.054;24.546;2023-02-01T03:54:29;98310.84;;;3.08;94.10
20023;BME280;10172;42.054;24.546;2023-02-01T03:56:59;98308.34;;;2.80;95.22
20023;BME280;10172;42.054;24.546;2023-02-01T03:59:26;98308.75;;;2.93;93.39
20023;BME280;10172;42.054;24.546;2023-02-01T04:01:52;98318.78;;;2.59;93.92
20023;BME280;10172;42.054;24.546;2023-02-01T04:04:18;98315.69;;;2.71;94.36
20023;BME280;10172;42.054;24.546;2023-02-01T04:06:50;98324.22;;;2.53;93.78
20023;BME280;10172;42.054;24.546;2023-02-01T04:09:16;98325.03;;;2.55;92.50
20023;BME280;10172;42.054;24.546;2023-02-01T04:11:42;98325.63;;;2.63;92.04
20023;BME280;10172;42.054;24.546;2023-02-01T04:14:07;98333.34;;;2.67;89.91
20023;BME280;10172;42.054;24.546;2023-02-01T04:16:33;98342.09;;;2.43;90.71
20023;BME280;10172;42.054;24.546;2023-02-01T04:18:59;98355.44;;;2.35;91.17
20023;BME280;10172;42.054;24.546;2023-02-01T04:21:26;98362.81;;;2.51;89.95
20023;BME280;10172;42.054;24.546;2023-02-01T04:23:52;98359.72;;;2.64;89.10
20023;BME280;10172;42.054;24.546;2023-02-01T04:26:18;98358.19;;;2.57;89.33
20023;BME280;10172;42.054;24.546;2023-02-01T04:28:45;98351.28;;;2.55;88.20
20023;BME280;10172;42.054;24.546;2023-02-01T04:31:15;98358.19;;;2.57;88.19
20023;BME280;10172;42.054;24.546;2023-02-01T04:33:41;98367.22;;;2.75;87.77
20023;BME280;10172;42.054;24.546;2023-02-01T04:36:07;98361.03;;;3.00;86.52
20023;BME280;10172;42.054;24.546;2023-02-01T04:38:33;98364.38;;;2.81;87.17
20023;BME280;10172;42.054;24.546;2023-02-01T04:40:58;98358.19;;;2.82;85.99
20023;BME280;10172;42.054;24.546;2023-02-01T04:43:24;98364.53;;;2.52;87.35
20023;BME280;10172;42.054;24.546;2023-02-01T04:45:50;98353.16;;;2.76;87.04
20023;BME280;10172;42.054;24.546;2023-02-01T04:48:17;98364.31;;;2.82;85.56
20023;BME280;10172;42.054;24.546;2023-02-01T04:50:44;98355.06;;;2.72;86.21
20023;BME280;10172;42.054;24.546;2023-02-01T04:53:13;98356.31;;;2.62;84.10
20023;BME280;10172;42.054;24.546;2023-02-01T04:55:39;98355.09;;;2.71;83.21
20023;BME280;10172;42.054;24.546;2023-02-01T04:58:05;98356.75;;;2.73;81.56
20023;BME280;10172;42.054;24.546;2023-02-01T05:00:30;98357.00;;;3.15;80.52
20023;BME280;10172;42.054;24.546;2023-02-01T05:02:56;98359.91;;;3.31;79.42
20023;BME280;10172;42.054;24.546;2023-02-01T05:05:21;98378.16;;;3.80;78.19
20023;BME280;10172;42.054;24.546;2023-02-01T05:07:46;98379.59;;;3.19;79.19
20023;BME280;10172;42.054;24.546;2023-02-01T05:10:12;98377.28;;;2.87;81.90
20023;BME280;10172;42.054;24.546;2023-02-01T05:12:38;98376.09;;;2.71;82.76
20023;BME280;10172;42.054;24.546;2023-02-01T05:15:22;98376.97;;;2.71;82.56
20023;BME280;10172;42.054;24.546;2023-02-01T05:17:47;98377.63;;;2.53;82.92
20023;BME280;10172;42.054;24.546;2023-02-01T05:20:13;98368.50;;;2.88;82.88
20023;BME280;10172;42.054;24.546;2023-02-01T05:22:38;98366.69;;;3.36;80.22
20023;BME280;10172;42.054;24.546;2023-02-01T05:25:04;98361.66;;;3.30;79.49
20023;BME280;10172;42.054;24.546;2023-02-01T05:27:30;98363.72;;;3.22;79.92
20023;BME280;10172;42.054;24.546;2023-02-01T05:29:56;98362.16;;;4.06;79.16
20023;BME280;10172;42.054;24.546;2023-02-01T05:32:21;98364.91;;;3.60;76.80
20023;BME280;10172;42.054;24.546;2023-02-01T05:34:47;98357.44;;;3.71;77.35
20023;BME280;10172;42.054;24.546;2023-02-01T05:37:12;98347.13;;;3.67;78.94
20023;BME280;10172;42.054;24.546;2023-02-01T05:39:38;98345.78;;;3.33;80.10
20023;BME280;10172;42.054;24.546;2023-02-01T05:42:03;98345.03;;;3.07;81.17
20023;BME280;10172;42.054;24.546;2023-02-01T05:44:29;98350.69;;;2.96;81.50
20023;BME280;10172;42.054;24.546;2023-02-01T05:46:54;98337.69;;;3.16;78.31
20023;BME280;10172;42.054;24.546;2023-02-01T05:49:20;98345.75;;;2.87;77.75
20023;BME280;10172;42.054;24.546;2023-02-01T05:51:45;98352.16;;;3.03;77.41
20023;BME280;10172;42.054;24.546;2023-02-01T05:54:11;98351.16;;;3.07;77.52
20023;BME280;10172;42.054;24.546;2023-02-01T05:56:36;98361.50;;;2.87;76.57
20023;BME280;10172;42.054;24.546;2023-02-01T05:59:02;98351.41;;;3.24;77.17
20023;BME280;10172;42.054;24.546;2023-02-01T06:01:27;98357.22;;;3.32;77.03
20023;BME280;10172;42.054;24.546;2023-02-01T06:03:53;98355.50;;;3.08;77.24
20023;BME280;10172;42.054;24.546;2023-02-01T06:06:18;98363.31;;;3.10;76.08
20023;BME280;10172;42.054;24.546;2023-02-01T06:08:44;98363.59;;;3.25;76.44
20023;BME280;10172;42.054;24.546;2023-02-01T06:11:10;98365.78;;;3.14;74.91
20023;BME280;10172;42.054;24.546;2023-02-01T06:13:35;98365.44;;;3.23;75.57
20023;BME280;10172;42.054;24.546;2023-02-01T06:16:04;98360.53;;;3.37;73.10
20023;BME280;10172;42.054;24.546;2023-02-01T06:18:32;98375.56;;;3.79;73.21
20023;BME280;10172;42.054;24.546;2023-02-01T06:20:59;98379.13;;;4.21;72.78
20023;BME280;10172;42.054;24.546;2023-02-01T06:23:28;98379.00;;;4.24;70.91
20023;BME280;10172;42.054;24.546;2023-02-01T06:26:06;98381.53;;;3.60;70.75
20023;BME280;10172;42.054;24.546;2023-02-01T06:28:35;98376.16;;;3.63;69.72
20023;BME280;10172;42.054;24.546;2023-02-01T06:31:05;98381.88;;;3.75;69.96
20023;BME280;10172;42.054;24.546;2023-02-01T06:33:34;98389.03;;;3.93;69.22
20023;BME280;10172;42.054;24.546;2023-02-01T06:36:02;98380.84;;;4.00;67.67
20023;BME280;10172;42.054;24.546;2023-02-01T06:38:29;98380.41;;;4.11;69.66
20023;BME280;10172;42.054;24.546;2023-02-01T06:40:55;98382.88;;;4.15;68.90
20023;BME280;10172;42.054;24.546;2023-02-01T06:43:22;98390.88;;;4.12;67.35
20023;BME280;10172;42.054;24.546;2023-02-01T06:45:48;98377.16;;;4.26;68.06
20023;BME280;10172;42.054;24.546;2023-02-01T06:48:14;98384.41;;;4.21;68.33
20023;BME280;10172;42.054;24.546;2023-02-01T06:50:39;98384.28;;;4.24;68.49
20023;BME280;10172;42.054;24.546;2023-02-01T06:53:05;98384.53;;;4.38;68.46
20023;BME280;10172;42.054;24.546;2023-02-01T06:55:30;98380.59;;;4.28;67.37
20023;BME280;10172;42.054;24.546;2023-02-01T06:57:56;98378.16;;;4.44;67.41
20023;BME280;10172;42.054;24.546;2023-02-01T07:00:22;98389.22;;;4.52;67.86
20023;BME280;10172;42.054;24.546;2023-02-01T07:02:48;98388.03;;;4.39;66.34
20023;BME280;10172;42.054;24.546;2023-02-01T07:05:14;98391.16;;;4.48;66.92
20023;BME280;10172;42.054;24.546;2023-02-01T07:07:42;98385.84;;;4.90;66.07
20023;BME280;10172;42.054;24.546;2023-02-01T07:10:08;98392.78;;;5.11;66.54
20023;BME280;10172;42.054;24.546;2023-02-01T07:12:34;98374.69;;;4.43;67.35
20023;BME280;10172;42.054;24.546;2023-02-01T07:14:59;98399.19;;;4.45;66.83
20023;BME280;10172;42.054;24.546;2023-02-01T07:17:26;98406.44;;;5.21;65.47
20023;BME280;10172;42.054;24.546;2023-02-01T07:19:54;98407.91;;;4.88;64.65
20023;BME280;10172;42.054;24.546;2023-02-01T07:22:19;98407.75;;;4.70;66.45
20023;BME280;10172;42.054;24.546;2023-02-01T07:24:45;98414.78;;;5.69;64.37
20023;BME280;10172;42.054;24.546;2023-02-01T07:27:10;98427.09;;;4.49;66.36
20023;BME280;10172;42.054;24.546;2023-02-01T07:29:36;98432.38;;;4.49;67.27
20023;BME280;10172;42.054;24.546;2023-02-01T07:32:01;98421.03;;;4.89;66.67
20023;BME280;10172;42.054;24.546;2023-02-01T07:34:28;98426.94;;;4.32;68.05
20023;BME280;10172;42.054;24.546;2023-02-01T07:36:53;98442.66;;;4.55;68.49
20023;BME280;10172;42.054;24.546;2023-02-01T07:39:19;98423.56;;;4.50;67.60
20023;BME280;10172;42.054;24.546;2023-02-01T07:41:45;98434.97;;;5.11;66.88
20023;BME280;10172;42.054;24.546;2023-02-01T07:44:11;98432.56;;;4.87;68.05
20023;BME280;10172;42.054;24.546;2023-02-01T07:46:36;98421.13;;;4.46;68.95
20023;BME280;10172;42.054;24.546;2023-02-01T07:49:03;98423.69;;;4.47;68.41
20023;BME280;10172;42.054;24.546;2023-02-01T07:51:29;98421.72;;;4.52;67.64
20023;BME280;10172;42.054;24.546;2023-02-01T07:53:54;98424.09;;;4.58;67.85
20023;BME280;10172;42.054;24.546;2023-02-01T07:56:20;98436.56;;;4.75;68.28
20023;BME280;10172;42.054;24.546;2023-02-01T07:58:53;98428.41;;;4.81;68.76
20023;BME280;10172;42.054;24.546;2023-02-01T08:01:24;98436.19;;;5.04;68.06
20023;BME280;10172;42.054;24.546;2023-02-01T08:03:59;98435.88;;;4.92;68.58
20023;BME280;10172;42.054;24.546;2023-02-01T08:06:26;98420.88;;;4.92;68.50
20023;BME280;10172;42.054;24.546;2023-02-01T08:08:54;98425.31;;;5.12;68.39
20023;BME280;10172;42.054;24.546;2023-02-01T08:11:21;98415.75;;;5.48;68.73
20023;BME280;10172;42.054;24.546;2023-02-01T08:13:47;98425.34;;;5.69;66.51
20023;BME280;10172;42.054;24.546;2023-02-01T08:16:15;98424.72;;;5.44;66.61
20023;BME280;10172;42.054;24.546;2023-02-01T08:18:41;98433.88;;;4.97;67.91
20023;BME280;10172;42.054;24.546;2023-02-01T08:21:09;98433.22;;;5.32;67.94
20023;BME280;10172;42.054;24.546;2023-02-01T08:23:37;98446.66;;;5.26;67.32
20023;BME280;10172;42.054;24.546;2023-02-01T08:26:13;98444.94;;;5.25;68.28
20023;BME280;10172;42.054;24.546;2023-02-01T08:28:42;98434.94;;;5.52;67.21
20023;BME280;10172;42.054;24.546;2023-02-01T08:31:10;98439.09;;;5.18;67.47
20023;BME280;10172;42.054;24.546;2023-02-01T08:33:36;98443.25;;;5.24;67.57
20023;BME280;10172;42.054;24.546;2023-02-01T08:36:07;98443.41;;;5.39;67.26
20023;BME280;10172;42.054;24.546;2023-02-01T08:38:38;98440.19;;;5.33;66.96
20023;BME280;10172;42.054;24.546;2023-02-01T08:41:07;98446.56;;;5.48;66.92
20023;BME280;10172;42.054;24.546;2023-02-01T08:43:33;98442.94;;;5.50;67.22
20023;BME280;10172;42.054;24.546;2023-02-01T08:45:59;98443.44;;;5.58;66.92
20023;BME280;10172;42.054;24.546;2023-02-01T08:48:24;98434.47;;;5.62;65.82
20023;BME280;10172;42.054;24.546;2023-02-01T08:50:50;98444.72;;;5.68;66.01
20023;BME280;10172;42.054;24.546;2023-02-01T08:53:15;98444.03;;;5.65;66.27
20023;BME280;10172;42.054;24.546;2023-02-01T08:55:41;98438.22;;;5.95;67.19
20023;BME280;10172;42.054;24.546;2023-02-01T08:58:07;98440.59;;;5.81;65.39
20023;BME280;10172;42.054;24.546;2023-02-01T09:00:32;98440.66;;;6.00;66.05
20023;BME280;10172;42.054;24.546;2023-02-01T09:02:57;98443.31;;;6.36;65.79
20023;BME280;10172;42.054;24.546;2023-02-01T09:05:24;98450.19;;;6.21;66.05
20023;BME280;10172;42.054;24.546;2023-02-01T09:07:52;98445.94;;;6.00;65.57
20023;BME280;10172;42.054;24.546;2023-02-01T09:10:18;98445.84;;;6.01;65.75
20023;BME280;10172;42.054;24.546;2023-02-01T09:12:43;98435.66;;;6.13;66.31
20023;BME280;10172;42.054;24.546;2023-02-01T09:15:09;98438.34;;;5.92;65.87
20023;BME280;10172;42.054;24.546;2023-02-01T09:17:37;98443.22;;;6.01;67.24
20023;BME280;10172;42.054;24.546;2023-02-01T09:20:03;98442.97;;;6.25;66.22
20023;BME280;10172;42.054;24.546;2023-02-01T09:22:29;98452.28;;;5.76;66.48
20023;BME280;10172;42.054;24.546;2023-02-01T09:24:54;98433.69;;;5.79;66.21
20023;BME280;10172;42.054;24.546;2023-02-01T09:27:20;98453.03;;;5.79;67.06
20023;BME280;10172;42.054;24.546;2023-02-01T09:29:46;98437.78;;;6.05;66.47
20023;BME280;10172;42.054;24.546;2023-02-01T09:32:18;98430.72;;;6.24;67.05
20023;BME280;10172;42.054;24.546;2023-02-01T09:34:44;98438.22;;;5.95;67.05
20023;BME280;10172;42.054;24.546;2023-02-01T09:37:09;98443.94;;;5.86;66.40
20023;BME280;10172;42.054;24.546;2023-02-01T09:39:35;98424.31;;;6.11;67.04
20023;BME280;10172;42.054;24.546;2023-02-01T09:44:48;98426.78;;;5.95;67.57
20023;BME280;10172;42.054;24.546;2023-02-01T09:47:19;98425.50;;;5.85;67.66
20023;BME280;10172;42.054;24.546;2023-02-01T09:50:09;98425.84;;;6.15;67.14
20023;BME280;10172;42.054;24.546;2023-02-01T09:52:45;98423.84;;;6.20;67.81
20023;BME280;10172;42.054;24.546;2023-02-01T09:55:20;98417.50;;;6.24;68.33
20023;BME280;10172;42.054;24.546;2023-02-01T09:57:59;98428.97;;;6.23;68.88
20023;BME280;10172;42.054;24.546;2023-02-01T10:00:30;98412.34;;;6.21;68.69
20023;BME280;10172;42.054;24.546;2023-02-01T10:02:57;98424.13;;;6.32;68.50
20023;BME280;10172;42.054;24.546;2023-02-01T10:05:49;98420.44;;;6.53;68.67
20023;BME280;10172;42.054;24.546;2023-02-01T10:11:39;98431.25;;;6.66;68.09
20023;BME280;10172;42.054;24.546;2023-02-01T10:22:11;98415.09;;;6.72;69.08
20023;BME280;10172;42.054;24.546;2023-02-01T10:24:59;98418.19;;;6.63;68.52
20023;BME280;10172;42.054;24.546;2023-02-01T10:27:35;98422.69;;;6.61;68.41
20023;BME280;10172;42.054;24.546;2023-02-01T10:30:20;98409.44;;;6.44;68.98
20023;BME280;10172;42.054;24.546;2023-02-01T10:32:48;98406.44;;;6.51;69.57
20023;BME280;10172;42.054;24.546;2023-02-01T10:35:18;98402.47;;;6.60;69.26
20023;BME280;10172;42.054;24.546;2023-02-01T10:37:44;98394.72;;;6.74;70.81
20023;BME280;10172;42.054;24.546;2023-02-01T10:40:24;98399.81;;;6.60;67.99
20023;BME280;10172;42.054;24.546;2023-02-01T10:43:00;98394.56;;;6.94;68.43
20023;BME280;10172;42.054;24.546;2023-02-01T10:45:32;98382.72;;;6.84;68.49
20023;BME280;10172;42.054;24.546;2023-02-01T10:48:00;98385.44;;;7.33;67.04
20023;BME280;10172;42.054;24.546;2023-02-01T10:51:00;98377.88;;;7.75;66.86
20023;BME280;10172;42.054;24.546;2023-02-01T10:56:09;98384.84;;;7.60;65.81
20023;BME280;10172;42.054;24.546;2023-02-01T10:58:36;98374.88;;;7.33;66.19
20023;BME280;10172;42.054;24.546;2023-02-01T11:01:09;98367.16;;;7.12;67.48
20023;BME280;10172;42.054;24.546;2023-02-01T11:03:50;98368.88;;;7.13;67.88
20023;BME280;10172;42.054;24.546;2023-02-01T11:06:36;98365.19;;;7.49;66.91
20023;BME280;10172;42.054;24.546;2023-02-01T11:11:31;98342.59;;;7.26;67.95
20023;BME280;10172;42.054;24.546;2023-02-01T11:14:10;98342.13;;;7.35;67.85
20023;BME280;10172;42.054;24.546;2023-02-01T11:16:39;98344.84;;;7.34;68.03
20023;BME280;10172;42.054;24.546;2023-02-01T11:19:06;98331.28;;;7.40;66.46
20023;BME280;10172;42.054;24.546;2023-02-01T11:21:33;98337.66;;;7.36;67.00
20023;BME280;10172;42.054;24.546;2023-02-01T11:24:04;98334.25;;;7.34;67.06
20023;BME280;10172;42.054;24.546;2023-02-01T11:26:33;98323.94;;;7.45;66.88
20023;BME280;10172;42.054;24.546;2023-02-01T11:29:04;98327.94;;;7.52;66.86
20023;BME280;10172;42.054;24.546;2023-02-01T11:31:32;98315.75;;;7.80;66.81
20023;BME280;10172;42.054;24.546;2023-02-01T11:34:04;98326.59;;;8.07;65.67
20023;BME280;10172;42.054;24.546;2023-02-01T11:36:32;98316.69;;;7.95;65.26
20023;BME280;10172;42.054;24.546;2023-02-01T11:39:31;98306.84;;;8.28;64.38
20023;BME280;10172;42.054;24.546;2023-02-01T11:41:59;98328.28;;;8.39;64.91
20023;BME280;10172;42.054;24.546;2023-02-01T11:44:35;98308.06;;;8.53;63.55
20023;BME280;10172;42.054;24.546;2023-02-01T11:47:29;98301.19;;;8.64;63.47
20023;BME280;10172;42.054;24.546;2023-02-01T11:50:01;98302.59;;;8.70;63.02
20023;BME280;10172;42.054;24.546;2023-02-01T11:55:49;98310.13;;;8.48;62.57
20023;BME280;10172;42.054;24.546;2023-02-01T11:58:09;98295.50;;;8.70;62.32
20023;BME280;10172;42.054;24.546;2023-02-01T12:05:58;98300.53;;;9.03;60.87
20023;BME280;10172;42.054;24.546;2023-02-01T12:11:55;98291.44;;;8.79;61.45
20023;BME280;10172;42.054;24.546;2023-02-01T12:20:26;98272.25;;;8.60;63.24
20023;BME280;10172;42.054;24.546;2023-02-01T12:26:23;98255.53;;;8.59;59.69
20023;BME280;10172;42.054;24.546;2023-02-01T12:34:29;98251.38;;;9.26;57.05
20023;BME280;10172;42.054;24.546;2023-02-01T12:39:53;98249.69;;;9.92;56.12
20023;BME280;10172;42.054;24.546;2023-02-01T12:42:31;98246.53;;;9.73;56.29
20023;BME280;10172;42.054;24.546;2023-02-01T12:47:41;98255.47;;;8.89;57.71
20023;BME280;10172;42.054;24.546;2023-02-01T12:50:32;98258.13;;;8.89;58.64
20023;BME280;10172;42.054;24.546;2023-02-01T12:53:37;98254.63;;;9.02;56.45
20023;BME280;10172;42.054;24.546;2023-02-01T12:56:12;98261.88;;;8.85;57.65
20023;BME280;10172;42.054;24.546;2023-02-01T12:58:44;98264.84;;;8.80;58.33
20023;BME280;10172;42.054;24.546;2023-02-01T13:01:16;98259.97;;;8.59;58.64
20023;BME280;10172;42.054;24.546;2023-02-01T13:04:08;98272.28;;;8.74;57.81
20023;BME280;10172;42.054;24.546;2023-02-01T13:06:41;98261.50;;;9.19;57.26
20023;BME280;10172;42.054;24.546;2023-02-01T13:12:21;98271.03;;;8.65;57.71
20023;BME280;10172;42.054;24.546;2023-02-01T13:15:28;98264.38;;;8.44;58.63
20023;BME280;10172;42.054;24.546;2023-02-01T13:18:01;98260.94;;;8.72;56.73
20023;BME280;10172;42.054;24.546;2023-02-01T13:20:32;98272.69;;;8.82;55.76
20023;BME280;10172;42.054;24.546;2023-02-01T13:23:04;98273.06;;;8.90;55.29
20023;BME280;10172;42.054;24.546;2023-02-01T13:28:17;98266.84;;;9.60;55.73
20023;BME280;10172;42.054;24.546;2023-02-01T13:34:26;98267.13;;;9.70;55.38
20023;BME280;10172;42.054;24.546;2023-02-01T13:42:05;98266.25;;;9.28;53.06
20023;BME280;10172;42.054;24.546;2023-02-01T13:44:40;98260.56;;;9.20;53.71
20023;BME280;10172;42.054;24.546;2023-02-01T13:50:03;98273.94;;;9.74;52.50
20023;BME280;10172;42.054;24.546;2023-02-01T13:52:43;98270.00;;;9.38;51.09
20023;BME280;10172;42.054;24.546;2023-02-01T13:57:40;98272.47;;;9.41;51.43
20023;BME280;10172;42.054;24.546;2023-02-01T14:00:33;98277.41;;;9.61;51.66
20023;BME280;10172;42.054;24.546;2023-02-01T14:08:12;98258.31;;;9.96;50.75
20023;BME280;10172;42.054;24.546;2023-02-01T14:13:36;98255.25;;;9.20;51.54
20023;BME280;10172;42.054;24.546;2023-02-01T14:23:42;98264.56;;;8.99;54.43
20023;BME280;10172;42.054;24.546;2023-02-01T14:26:15;98258.66;;;8.80;54.48
20023;BME280;10172;42.054;24.546;2023-02-01T14:29:07;98255.06;;;8.81;55.62
20023;BME280;10172;42.054;24.546;2023-02-01T14:32:07;98253.56;;;8.91;54.88
20023;BME280;10172;42.054;24.546;2023-02-01T14:34:51;98251.75;;;9.20;53.81
20023;BME280;10172;42.054;24.546;2023-02-01T14:42:29;98250.03;;;8.76;55.84
20023;BME280;10172;42.054;24.546;2023-02-01T14:47:51;98246.56;;;8.76;55.72
20023;BME280;10172;42.054;24.546;2023-02-01T15:01:30;98261.47;;;8.03;56.45
20023;BME280;10172;42.054;24.546;2023-02-01T15:04:17;98265.41;;;7.96;55.63
20023;BME280;10172;42.054;24.546;2023-02-01T15:06:56;98253.38;;;7.91;55.55
20023;BME280;10172;42.054;24.546;2023-02-01T15:09:32;98271.22;;;7.87;55.24
20023;BME280;10172;42.054;24.546;2023-02-01T15:14:33;98264.94;;;7.74;55.89
20023;BME280;10172;42.054;24.546;2023-02-01T15:16:59;98263.59;;;7.67;56.42
20023;BME280;10172;42.054;24.546;2023-02-01T15:19:27;98263.47;;;7.84;56.71
20023;BME280;10172;42.054;24.546;2023-02-01T15:21:57;98261.88;;;7.50;57.00
20023;BME280;10172;42.054;24.546;2023-02-01T15:26:50;98259.47;;;7.77;56.39
20023;BME280;10172;42.054;24.546;2023-02-01T15:29:16;98264.19;;;7.56;55.49
20023;BME280;10172;42.054;24.546;2023-02-01T15:31:46;98257.69;;;7.77;55.55
20023;BME280;10172;42.054;24.546;2023-02-01T15:34:14;98267.75;;;7.71;54.50
20023;BME280;10172;42.054;24.546;2023-02-01T15:36:41;98262.31;;;8.04;54.26
20023;BME280;10172;42.054;24.546;2023-02-01T15:39:21;98261.41;;;8.05;52.96
20023;BME280;10172;42.054;24.546;2023-02-01T15:42:12;98256.50;;;8.13;53.43
20023;BME280;10172;42.054;24.546;2023-02-01T15:44:43;98253.34;;;8.06;53.09
20023;BME280;10172;42.054;24.546;2023-02-01T15:47:25;98253.94;;;7.50;54.01
20023;BME280;10172;42.054;24.546;2023-02-01T15:49:53;98267.16;;;7.66;52.57
20023;BME280;10172;42.054;24.546;2023-02-01T15:52:29;98267.16;;;7.50;55.34